createdAt,value
2022-10-31T00:01:42.451Z,0.38
2022-10-31T00:04:11.826Z,0.40
2022-10-31T00:06:40.997Z,0.50
2022-10-31T00:09:11.728Z,0.30
2022-10-31T00:11:40.901Z,0.40
2022-10-31T00:14:10.097Z,0.40
2022-10-31T00:16:39.359Z,0.40
2022-10-31T00:19:09.575Z,0.40
2022-10-31T00:21:38.756Z,0.30
2022-10-31T00:24:08.349Z,0.30
2022-10-31T00:26:37.625Z,0.40
2022-10-31T00:29:07.056Z,0.30
2022-10-31T00:31:36.520Z,0.30
2022-10-31T00:34:06.052Z,0.30
2022-10-31T00:36:35.251Z,0.40
2022-10-31T00:39:05.146Z,0.30
2022-10-31T00:41:34.894Z,0.40
2022-10-31T00:44:04.218Z,0.30
2022-10-31T00:46:33.528Z,0.40
2022-10-31T00:49:02.866Z,0.30
2022-10-31T00:51:32.297Z,0.30
2022-10-31T00:54:01.560Z,0.40
2022-10-31T00:56:30.743Z,0.30
2022-10-31T00:59:00.494Z,0.30
2022-10-31T01:01:29.759Z,0.40
2022-10-31T01:03:59.060Z,0.40
2022-10-31T01:06:29.212Z,0.30
2022-10-31T01:09:00.243Z,0.30
2022-10-31T01:11:29.423Z,0.40
2022-10-31T01:13:58.598Z,0.30
2022-10-31T01:16:30.512Z,0.30
2022-10-31T01:19:00.479Z,0.25
2022-10-31T01:21:31.032Z,0.30
2022-10-31T01:24:04.801Z,0.38
2022-10-31T01:26:34.712Z,0.40
2022-10-31T01:29:09.249Z,0.40
2022-10-31T01:31:40.601Z,0.30
2022-10-31T01:34:15.582Z,0.30
2022-10-31T01:36:48.364Z,0.30
2022-10-31T01:39:20.238Z,0.40
2022-10-31T01:41:54.036Z,0.40
2022-10-31T01:44:23.210Z,0.40
2022-10-31T01:46:56.297Z,0.40
2022-10-31T01:49:49.019Z,0.40
2022-10-31T01:52:27.083Z,0.30
2022-10-31T01:55:11.748Z,0.30
2022-10-31T01:57:47.159Z,0.40
2022-10-31T02:00:22.090Z,0.40
2022-10-31T02:02:52.781Z,0.32
2022-10-31T02:05:26.958Z,0.40
2022-10-31T02:08:05.168Z,0.50
2022-10-31T02:10:37.662Z,0.30
2022-10-31T02:13:08.994Z,0.30
2022-10-31T02:15:50.738Z,0.40
2022-10-31T02:18:22.918Z,0.40
2022-10-31T02:21:16.415Z,0.40
2022-10-31T02:24:26.353Z,0.30
2022-10-31T02:27:10.164Z,0.40
2022-10-31T02:30:04.297Z,0.40
2022-10-31T02:33:26.196Z,0.40
2022-10-31T02:36:26.155Z,0.35
2022-10-31T02:39:27.668Z,0.30
2022-10-31T02:42:23.250Z,0.30
2022-10-31T02:45:07.513Z,0.35
2022-10-31T02:47:39.675Z,0.30
2022-10-31T02:50:43.309Z,0.40
2022-10-31T02:53:17.131Z,0.30
2022-10-31T02:56:03.026Z,0.30
2022-10-31T02:58:39.118Z,0.40
2022-10-31T03:01:26.951Z,0.40
2022-10-31T03:04:20.281Z,0.30
2022-10-31T03:07:04.631Z,0.40
2022-10-31T03:10:16.547Z,0.50
2022-10-31T03:13:26.762Z,0.38
2022-10-31T03:16:15.898Z,0.35
2022-10-31T03:19:10.514Z,0.40
2022-10-31T03:21:48.435Z,0.43
2022-10-31T03:24:23.544Z,0.40
2022-10-31T03:26:58.567Z,0.40
2022-10-31T03:29:35.552Z,0.50
2022-10-31T03:34:52.067Z,0.30
2022-10-31T03:37:24.655Z,0.40
2022-10-31T03:39:58.281Z,0.43
2022-10-31T03:42:34.219Z,0.40
2022-10-31T03:45:14.233Z,0.40
2022-10-31T03:47:45.114Z,0.40
2022-10-31T03:50:17.211Z,0.50
2022-10-31T03:53:04.298Z,0.50
2022-10-31T03:55:57.121Z,0.35
2022-10-31T03:58:38.336Z,0.40
2022-10-31T04:01:16.595Z,0.30
2022-10-31T04:03:46.829Z,0.40
2022-10-31T04:06:20.444Z,0.40
2022-10-31T04:09:00.148Z,0.40
2022-10-31T04:11:36.153Z,0.50
2022-10-31T04:14:28.108Z,0.40
2022-10-31T04:16:58.620Z,0.47
2022-10-31T04:19:36.201Z,0.45
2022-10-31T04:22:05.505Z,0.60
2022-10-31T04:24:34.745Z,0.60
2022-10-31T04:27:04.075Z,0.57
2022-10-31T04:29:33.518Z,0.40
2022-10-31T04:32:02.842Z,0.50
2022-10-31T04:34:32.042Z,0.50
2022-10-31T04:37:01.282Z,0.47
2022-10-31T04:39:30.600Z,0.50
2022-10-31T04:42:19.771Z,0.40
2022-10-31T04:44:49.003Z,0.40
2022-10-31T04:47:18.472Z,0.40
2022-10-31T04:49:47.771Z,0.57
2022-10-31T04:52:17.147Z,0.60
2022-10-31T04:54:46.453Z,0.60
2022-10-31T04:57:51.321Z,0.60
2022-10-31T05:00:26.810Z,0.70
2022-10-31T05:02:59.366Z,0.43
2022-10-31T05:05:32.881Z,0.50
2022-10-31T05:08:05.743Z,0.68
2022-10-31T05:10:35.466Z,0.60
2022-10-31T05:13:06.619Z,0.52
2022-10-31T05:16:11.275Z,0.52
2022-10-31T05:18:52.250Z,0.73
2022-10-31T05:21:40.090Z,0.65
2022-10-31T05:24:10.649Z,0.50
2022-10-31T05:26:42.414Z,0.50
2022-10-31T05:29:12.385Z,0.50
2022-10-31T05:31:41.711Z,0.50
2022-10-31T05:34:18.613Z,0.50
2022-10-31T05:36:47.790Z,0.65
2022-10-31T05:39:22.033Z,0.50
2022-10-31T05:41:56.459Z,0.60
2022-10-31T05:44:29.200Z,0.93
2022-10-31T05:47:21.898Z,0.50
2022-10-31T05:50:11.159Z,0.40
2022-10-31T05:53:05.013Z,0.43
2022-10-31T05:58:21.631Z,0.50
2022-10-31T06:01:16.816Z,0.40
2022-10-31T06:03:48.324Z,0.50
2022-10-31T06:06:19.099Z,0.50
2022-10-31T06:08:48.730Z,0.50
2022-10-31T06:11:22.400Z,0.50
2022-10-31T06:14:07.365Z,0.50
2022-10-31T06:17:08.909Z,0.57
2022-10-31T06:20:01.134Z,0.50
2022-10-31T06:22:32.397Z,0.40
2022-10-31T06:25:01.861Z,0.40
2022-10-31T06:27:34.770Z,0.40
2022-10-31T06:30:11.723Z,0.50
2022-10-31T06:32:40.950Z,0.47
2022-10-31T06:35:11.876Z,0.52
2022-10-31T06:37:44.424Z,0.40
2022-10-31T06:40:30.281Z,0.60
2022-10-31T06:43:20.273Z,0.40
2022-10-31T06:45:49.688Z,0.45
2022-10-31T06:48:25.770Z,0.50
2022-10-31T06:51:15.603Z,0.40
2022-10-31T06:53:44.926Z,0.45
2022-10-31T06:56:18.067Z,0.50
2022-10-31T06:58:54.046Z,0.45
2022-10-31T07:01:37.340Z,0.50
2022-10-31T07:04:06.763Z,0.40
2022-10-31T07:06:38.111Z,0.40
2022-10-31T07:09:07.764Z,0.30
2022-10-31T07:11:36.996Z,0.50
2022-10-31T07:14:06.475Z,0.40
2022-10-31T07:16:35.734Z,0.40
2022-10-31T07:19:06.565Z,0.30
2022-10-31T07:21:36.330Z,0.40
2022-10-31T07:24:06.089Z,0.40
2022-10-31T07:26:43.332Z,0.32
2022-10-31T07:29:13.059Z,0.30
2022-10-31T07:31:42.459Z,0.40
2022-10-31T07:34:17.208Z,0.40
2022-10-31T07:39:33.843Z,0.40
2022-10-31T07:42:03.401Z,0.30
2022-10-31T07:44:33.632Z,0.30
2022-10-31T07:47:21.153Z,0.45
2022-10-31T07:53:09.446Z,0.40
2022-10-31T07:55:49.470Z,0.40
2022-10-31T07:58:19.058Z,0.40
2022-10-31T08:00:49.530Z,0.40
2022-10-31T08:03:29.639Z,0.40
2022-10-31T08:06:21.719Z,0.40
2022-10-31T08:08:53.873Z,0.30
2022-10-31T08:11:23.227Z,0.40
2022-10-31T08:13:52.465Z,0.30
2022-10-31T08:16:22.167Z,0.40
2022-10-31T08:18:59.626Z,0.40
2022-10-31T08:21:31.193Z,0.30
2022-10-31T08:24:01.129Z,0.40
2022-10-31T08:26:31.870Z,0.30
2022-10-31T08:29:01.703Z,0.30
2022-10-31T08:31:37.650Z,0.30
2022-10-31T08:34:28.094Z,0.30
2022-10-31T08:37:20.885Z,0.30
2022-10-31T08:39:54.630Z,0.40
2022-10-31T08:42:27.430Z,0.30
2022-10-31T08:44:56.608Z,0.30
2022-10-31T08:47:25.843Z,0.30
2022-10-31T08:49:56.485Z,0.30
2022-10-31T08:52:51.209Z,0.20
2022-10-31T08:55:16.840Z,0.40
2022-10-31T08:58:08.960Z,0.30
2022-10-31T09:00:50.047Z,0.30
2022-10-31T09:03:28.908Z,0.30
2022-10-31T09:06:04.257Z,0.30
2022-10-31T09:08:34.287Z,0.30
2022-10-31T09:11:05.548Z,0.30
2022-10-31T09:14:03.895Z,0.30
2022-10-31T09:16:42.206Z,0.20
2022-10-31T09:19:18.275Z,0.30
2022-10-31T09:21:53.255Z,0.30
2022-10-31T09:24:24.086Z,0.30
2022-10-31T09:26:53.303Z,0.30
2022-10-31T09:29:29.499Z,0.30
2022-10-31T09:32:01.902Z,0.30
2022-10-31T09:34:32.917Z,0.30
2022-10-31T09:37:09.393Z,0.20
2022-10-31T09:39:38.593Z,0.20
2022-10-31T09:43:16.037Z,0.30
2022-10-31T09:46:32.108Z,0.30
2022-10-31T09:50:05.857Z,0.30
2022-10-31T09:52:41.723Z,0.30
2022-10-31T09:55:45.158Z,0.30
2022-10-31T09:58:29.264Z,0.20
2022-10-31T10:01:04.095Z,0.30
2022-10-31T10:03:50.384Z,0.30
2022-10-31T10:06:45.873Z,0.20
2022-10-31T10:09:40.885Z,0.30
2022-10-31T10:13:02.176Z,0.20
2022-10-31T10:15:58.920Z,0.30
2022-10-31T10:19:00.425Z,0.20
2022-10-31T10:22:26.084Z,0.30
2022-10-31T10:25:21.362Z,0.20
2022-10-31T10:28:05.861Z,0.30
2022-10-31T10:31:22.807Z,0.25
2022-10-31T10:33:58.093Z,0.28
2022-10-31T10:37:01.799Z,0.30
2022-10-31T10:39:44.583Z,0.20
2022-10-31T10:42:36.637Z,0.30
2022-10-31T10:45:37.056Z,0.30
2022-10-31T10:48:30.652Z,0.20
2022-10-31T10:51:01.627Z,0.20
2022-10-31T10:54:09.574Z,0.20
2022-10-31T10:57:09.732Z,0.20
2022-10-31T10:59:39.347Z,0.22
2022-10-31T11:02:27.418Z,0.20
2022-10-31T11:05:01.156Z,0.20
2022-10-31T11:07:41.673Z,0.20
2022-10-31T11:10:16.816Z,0.20
2022-10-31T11:13:00.106Z,0.20
2022-10-31T11:15:41.628Z,0.20
2022-10-31T11:21:01.357Z,0.30
2022-10-31T11:23:31.759Z,0.20
2022-10-31T11:26:07.868Z,0.20
2022-10-31T11:28:37.171Z,0.20
2022-10-31T11:31:14.985Z,0.20
2022-10-31T11:34:00.205Z,0.20
2022-10-31T11:36:35.416Z,0.20
2022-10-31T11:39:18.432Z,0.20
2022-10-31T11:41:49.643Z,0.20
2022-10-31T11:44:31.640Z,0.20
2022-10-31T11:47:06.669Z,0.20
2022-10-31T11:49:46.554Z,0.20
2022-10-31T11:52:25.736Z,0.20
2022-10-31T11:55:12.657Z,0.20
2022-10-31T11:57:51.472Z,0.20
2022-10-31T12:00:30.861Z,0.20
2022-10-31T12:03:24.717Z,0.20
2022-10-31T12:06:08.615Z,0.20
2022-10-31T12:08:41.814Z,0.20
2022-10-31T12:11:32.973Z,0.20
2022-10-31T12:14:18.315Z,0.20
2022-10-31T12:17:02.165Z,0.20
2022-10-31T12:20:01.944Z,0.25
2022-10-31T12:22:47.100Z,0.20
2022-10-31T12:25:50.226Z,0.30
2022-10-31T12:28:28.471Z,0.20
2022-10-31T12:31:28.564Z,0.20
2022-10-31T12:34:36.021Z,0.20
2022-10-31T12:38:03.309Z,0.20
2022-10-31T12:41:30.415Z,0.20
2022-10-31T12:44:28.078Z,0.20
2022-10-31T12:47:34.612Z,0.20
2022-10-31T12:51:00.172Z,0.20
2022-10-31T12:53:53.581Z,0.20
2022-10-31T12:56:46.257Z,0.17
2022-10-31T12:59:38.754Z,0.20
2022-10-31T13:02:33.334Z,0.20
2022-10-31T13:05:31.610Z,0.20
2022-10-31T13:08:16.569Z,0.20
2022-10-31T13:11:12.529Z,0.20
2022-10-31T13:13:52.569Z,0.20
2022-10-31T13:16:36.428Z,0.20
2022-10-31T13:19:35.185Z,0.20
2022-10-31T13:22:13.191Z,0.20
2022-10-31T13:25:23.996Z,0.20
2022-10-31T13:28:39.499Z,0.20
2022-10-31T13:31:10.615Z,0.20
2022-10-31T13:33:55.857Z,0.20
2022-10-31T13:36:30.790Z,0.20
2022-10-31T13:39:31.755Z,0.20
2022-10-31T13:42:42.559Z,0.20
2022-10-31T13:45:24.669Z,0.20
2022-10-31T13:48:17.158Z,0.20
2022-10-31T13:51:11.638Z,0.20
2022-10-31T13:53:57.341Z,0.20
2022-10-31T13:56:34.654Z,0.20
2022-10-31T13:59:12.846Z,0.20
2022-10-31T14:02:01.967Z,0.20
2022-10-31T14:04:39.783Z,0.20
2022-10-31T14:07:16.914Z,0.20
2022-10-31T14:10:06.609Z,0.20
2022-10-31T14:12:45.794Z,0.30
2022-10-31T14:15:22.434Z,0.20
2022-10-31T14:17:59.050Z,0.30
2022-10-31T14:20:41.057Z,0.30
2022-10-31T14:23:34.431Z,0.20
2022-10-31T14:26:27.755Z,0.20
2022-10-31T14:29:21.457Z,0.30
2022-10-31T14:32:19.363Z,0.20
2022-10-31T14:34:51.544Z,0.30
2022-10-31T14:37:43.416Z,0.30
2022-10-31T14:40:56.836Z,0.30
2022-10-31T14:43:43.817Z,0.30
2022-10-31T14:46:31.766Z,0.30
2022-10-31T14:49:35.604Z,0.20
2022-10-31T14:52:08.744Z,0.20
2022-10-31T14:54:49.342Z,0.30
2022-10-31T14:57:35.738Z,0.30
2022-10-31T15:00:09.743Z,0.30
2022-10-31T15:03:13.768Z,0.30
2022-10-31T15:05:56.203Z,0.25
2022-10-31T15:08:53.319Z,0.30
2022-10-31T15:11:25.860Z,0.30
2022-10-31T15:13:58.227Z,0.30
2022-10-31T15:16:40.053Z,0.30
2022-10-31T15:19:18.035Z,0.30
2022-10-31T15:21:47.521Z,0.30
2022-10-31T15:24:19.405Z,0.30
2022-10-31T15:26:52.752Z,0.30
2022-10-31T15:29:26.494Z,0.30
2022-10-31T15:32:01.681Z,0.30
2022-10-31T15:34:39.689Z,0.20
2022-10-31T15:37:19.670Z,0.30
2022-10-31T15:39:50.687Z,0.30
2022-10-31T15:42:32.084Z,0.20
2022-10-31T15:45:05.613Z,0.30
2022-10-31T15:47:35.323Z,0.30
2022-10-31T15:50:20.798Z,0.30
2022-10-31T15:52:51.349Z,0.30
2022-10-31T15:55:25.745Z,0.30
2022-10-31T15:58:05.368Z,0.30
2022-10-31T16:00:38.456Z,0.30
2022-10-31T16:03:16.539Z,0.38
2022-10-31T16:05:50.252Z,0.30
2022-10-31T16:08:51.612Z,0.30
2022-10-31T16:11:33.051Z,0.30
2022-10-31T16:14:25.290Z,0.30
2022-10-31T16:16:59.334Z,0.30
2022-10-31T16:19:33.491Z,0.30
2022-10-31T16:22:14.444Z,0.30
2022-10-31T16:24:53.628Z,0.30
2022-10-31T16:27:31.061Z,0.30
2022-10-31T16:30:05.053Z,0.30
2022-10-31T16:32:54.500Z,0.30
2022-10-31T16:35:37.298Z,0.30
2022-10-31T16:38:09.166Z,0.30
2022-10-31T16:40:40.298Z,0.30
2022-10-31T16:43:15.019Z,0.30
2022-10-31T16:45:53.956Z,0.30
2022-10-31T16:48:24.316Z,0.30
2022-10-31T16:50:54.270Z,0.20
2022-10-31T16:53:24.304Z,0.30
2022-10-31T16:56:00.217Z,0.30
2022-10-31T16:58:34.060Z,0.20
2022-10-31T17:01:07.939Z,0.30
2022-10-31T17:03:37.315Z,0.30
2022-10-31T17:06:06.596Z,0.30
2022-10-31T17:08:35.790Z,0.30
2022-10-31T17:11:06.376Z,0.30
2022-10-31T17:13:36.011Z,0.30
2022-10-31T17:16:06.142Z,0.25
2022-10-31T17:18:35.408Z,0.30
2022-10-31T17:21:06.338Z,0.30
2022-10-31T17:23:35.977Z,0.30
2022-10-31T17:26:06.603Z,0.30
2022-10-31T17:28:35.924Z,0.25
2022-10-31T17:31:05.235Z,0.30
2022-10-31T17:33:34.583Z,0.30
2022-10-31T17:36:04.644Z,0.30
2022-10-31T17:38:33.844Z,0.60
2022-10-31T17:41:10.080Z,0.70
2022-10-31T17:43:40.652Z,0.70
2022-10-31T17:46:10.023Z,0.30
2022-10-31T17:48:39.657Z,0.28
2022-10-31T17:51:09.089Z,0.30
2022-10-31T17:53:39.435Z,0.30
2022-10-31T17:56:10.333Z,0.30
2022-10-31T17:58:39.594Z,0.20
2022-10-31T18:01:13.489Z,0.20
2022-10-31T18:03:43.353Z,0.22
2022-10-31T18:06:14.655Z,0.28
2022-10-31T18:08:47.088Z,0.30
2022-10-31T18:11:21.971Z,0.30
2022-10-31T18:13:59.279Z,0.38
2022-10-31T18:16:28.748Z,0.30
2022-10-31T18:18:59.468Z,0.30
2022-10-31T18:21:29.994Z,0.20
2022-10-31T18:24:02.137Z,0.30
2022-10-31T18:26:32.153Z,0.30
2022-10-31T18:29:01.708Z,0.30
2022-10-31T18:31:30.908Z,0.30
2022-10-31T18:34:00.218Z,0.30
2022-10-31T18:36:29.548Z,0.28
2022-10-31T18:38:58.879Z,0.30
2022-10-31T18:41:28.038Z,0.30
2022-10-31T18:43:59.920Z,0.30
2022-10-31T18:46:29.556Z,0.30
2022-10-31T18:48:59.788Z,0.30
2022-10-31T18:51:29.572Z,0.30
2022-10-31T18:54:01.625Z,0.30
2022-10-31T18:56:33.897Z,0.30
2022-10-31T18:59:03.350Z,0.30
2022-10-31T19:01:33.682Z,0.20
2022-10-31T19:04:03.849Z,0.30
2022-10-31T19:06:33.055Z,0.30
2022-10-31T19:09:06.415Z,0.30
2022-10-31T19:11:38.347Z,0.30
2022-10-31T19:14:11.184Z,0.30
2022-10-31T19:16:40.582Z,0.30
2022-10-31T19:19:10.043Z,0.30
2022-10-31T19:21:39.270Z,0.30
2022-10-31T19:24:09.643Z,0.32
2022-10-31T19:26:38.953Z,0.30
2022-10-31T19:29:09.530Z,0.30
2022-10-31T19:31:38.720Z,0.30
2022-10-31T19:34:08.047Z,0.30
2022-10-31T19:36:37.293Z,0.28
2022-10-31T19:39:06.567Z,0.30
2022-10-31T19:41:36.306Z,0.20
2022-10-31T19:44:05.659Z,0.30
2022-10-31T19:46:53.258Z,0.30
2022-10-31T19:49:24.682Z,0.30
2022-10-31T19:51:54.299Z,0.30
2022-10-31T19:54:23.541Z,0.30
2022-10-31T19:56:52.784Z,0.30
2022-10-31T19:59:21.954Z,0.30
2022-10-31T20:01:51.231Z,0.30
2022-10-31T20:04:20.503Z,0.20
2022-10-31T20:06:49.993Z,0.30
2022-10-31T20:09:19.240Z,0.30
2022-10-31T20:11:48.513Z,0.30
2022-10-31T20:14:18.233Z,0.40
2022-10-31T20:16:47.613Z,0.30
2022-10-31T20:19:16.807Z,0.30
2022-10-31T20:21:46.577Z,0.30
2022-10-31T20:24:16.217Z,0.30
2022-10-31T20:26:45.388Z,0.30
2022-10-31T20:29:16.332Z,0.30
2022-10-31T20:31:47.423Z,0.30
2022-10-31T20:34:16.928Z,0.30
2022-10-31T20:36:46.748Z,0.30
2022-10-31T20:39:15.970Z,0.30
2022-10-31T20:41:45.238Z,0.30
2022-10-31T20:44:14.996Z,0.30
2022-10-31T20:46:44.297Z,0.30
2022-10-31T20:49:13.460Z,0.40
2022-10-31T20:51:42.703Z,0.30
2022-10-31T20:54:14.309Z,0.30
2022-10-31T20:56:43.577Z,0.30
2022-10-31T20:59:15.188Z,0.30
2022-10-31T21:01:44.575Z,0.30
2022-10-31T21:04:13.905Z,0.60
2022-10-31T21:06:49.015Z,0.60
2022-10-31T21:09:18.726Z,0.50
2022-10-31T21:11:47.956Z,0.30
2022-10-31T21:14:17.138Z,0.30
2022-10-31T21:16:46.285Z,0.30
2022-10-31T21:19:15.635Z,0.30
2022-10-31T21:21:44.911Z,0.25
2022-10-31T21:26:53.306Z,0.30
2022-10-31T21:29:22.578Z,0.30
2022-10-31T21:31:51.802Z,0.30
2022-10-31T21:34:21.096Z,0.30
2022-10-31T21:36:50.300Z,0.30
2022-10-31T21:39:19.584Z,0.30
2022-10-31T21:41:48.899Z,0.30
2022-10-31T21:44:18.187Z,0.32
2022-10-31T21:46:48.180Z,0.22
2022-10-31T21:49:17.479Z,0.30
2022-10-31T21:51:47.638Z,0.30
2022-10-31T21:54:30.189Z,0.30
2022-10-31T21:57:01.917Z,0.30
2022-10-31T21:59:31.306Z,0.30
2022-10-31T22:02:01.762Z,0.40
2022-10-31T22:04:31.079Z,0.30
2022-10-31T22:07:00.292Z,0.30
2022-10-31T22:09:29.486Z,0.30
2022-10-31T22:11:59.920Z,0.30
2022-10-31T22:14:29.303Z,0.30
2022-10-31T22:16:58.601Z,0.40
2022-10-31T22:19:27.943Z,0.30
2022-10-31T22:21:57.353Z,0.40
2022-10-31T22:24:27.236Z,0.30
2022-10-31T22:26:56.475Z,0.30
2022-10-31T22:29:27.840Z,0.20
2022-10-31T22:31:59.545Z,0.30
2022-10-31T22:34:29.840Z,0.40
2022-10-31T22:36:59.200Z,0.30
2022-10-31T22:39:28.792Z,0.32
2022-10-31T22:41:57.981Z,0.30
2022-10-31T22:44:27.201Z,0.40
2022-10-31T22:46:56.395Z,0.30
2022-10-31T22:49:26.162Z,0.32
2022-10-31T22:51:59.709Z,0.40
2022-10-31T22:54:29.517Z,0.20
2022-10-31T22:56:58.710Z,0.30
2022-10-31T22:59:27.928Z,0.30
2022-10-31T23:01:57.291Z,0.30
2022-10-31T23:04:26.690Z,0.30
2022-10-31T23:06:55.896Z,0.30
2022-10-31T23:09:25.092Z,0.40
2022-10-31T23:11:54.284Z,0.30
2022-10-31T23:14:23.479Z,0.40
2022-10-31T23:16:57.327Z,0.30
2022-10-31T23:19:29.502Z,0.30
2022-10-31T23:22:04.541Z,0.25
2022-10-31T23:24:41.383Z,0.35
2022-10-31T23:27:23.712Z,0.30
2022-10-31T23:29:59.477Z,0.30
2022-10-31T23:32:35.380Z,0.25
2022-10-31T23:35:10.659Z,0.30
2022-10-31T23:37:40.055Z,0.30
2022-10-31T23:40:09.768Z,0.38
2022-10-31T23:42:39.043Z,0.30
2022-10-31T23:45:08.925Z,0.30
2022-10-31T23:47:42.414Z,0.30
2022-10-31T23:50:12.809Z,0.30
2022-10-31T23:52:41.969Z,0.30
2022-10-31T23:55:11.186Z,0.30
2022-10-31T23:57:41.346Z,0.40
